sensor_id;sensor_type;location;lat;lon;timestamp;pressure;altitude;pressure_sealevel;temperature;humidity
76424;BME280;65257;52.104;4.268;2023-01-19T00:01:21;99944.31;;;4.58;89.12
76424;BME280;65257;52.104;4.268;2023-01-19T00:03:47;99944.88;;;4.70;89.28
76424;BME280;65257;52.104;4.268;2023-01-19T00:06:12;99951.66;;;4.52;89.16
76424;BME280;65257;52.104;4.268;2023-01-19T00:08:38;99947.25;;;4.48;89.12
76424;BME280;65257;52.104;4.268;2023-01-19T00:11:04;99953.25;;;4.30;88.95
76424;BME280;65257;52.104;4.268;2023-01-19T00:13:30;99980.41;;;4.34;88.79
76424;BME280;65257;52.104;4.268;2023-01-19T00:15:55;99975.63;;;4.40;88.98
76424;BME280;65257;52.104;4.268;2023-01-19T00:18:21;99971.50;;;4.23;88.83
76424;BME280;65257;52.104;4.268;2023-01-19T00:20:52;99982.19;;;4.18;88.91
76424;BME280;65257;52.104;4.268;2023-01-19T00:23:17;99986.38;;;4.17;88.86
76424;BME280;65257;52.104;4.268;2023-01-19T00:25:44;99988.53;;;4.27;89.26
76424;BME280;65257;52.104;4.268;2023-01-19T00:28:11;99981.56;;;4.41;89.12
76424;BME280;65257;52.104;4.268;2023-01-19T00:30:38;99977.50;;;4.44;88.99
76424;BME280;65257;52.104;4.268;2023-01-19T00:33:03;99998.56;;;4.43;89.19
76424;BME280;65257;52.104;4.268;2023-01-19T00:35:29;100003.78;;;4.47;88.99
76424;BME280;65257;52.104;4.268;2023-01-19T00:37:55;99990.16;;;4.44;88.85
76424;BME280;65257;52.104;4.268;2023-01-19T00:40:21;99984.84;;;4.38;88.91
76424;BME280;65257;52.104;4.268;2023-01-19T00:42:47;99990.97;;;4.43;88.44
76424;BME280;65257;52.104;4.268;2023-01-19T00:45:18;100004.50;;;4.26;88.60
76424;BME280;65257;52.104;4.268;2023-01-19T00:47:44;100011.91;;;4.04;88.74
76424;BME280;65257;52.104;4.268;2023-01-19T00:50:11;100018.94;;;4.10;88.91
76424;BME280;65257;52.104;4.268;2023-01-19T00:52:38;100019.09;;;3.95;88.58
76424;BME280;65257;52.104;4.268;2023-01-19T00:55:08;100031.06;;;3.99;88.74
76424;BME280;65257;52.104;4.268;2023-01-19T00:57:34;100017.34;;;3.94;88.88
76424;BME280;65257;52.104;4.268;2023-01-19T01:00:00;100015.88;;;3.99;88.67
76424;BME280;65257;52.104;4.268;2023-01-19T01:02:26;100026.72;;;4.14;88.85
76424;BME280;65257;52.104;4.268;2023-01-19T01:04:51;100049.16;;;4.07;88.57
76424;BME280;65257;52.104;4.268;2023-01-19T01:07:22;100045.69;;;4.05;88.86
76424;BME280;65257;52.104;4.268;2023-01-19T01:09:49;100032.50;;;3.76;89.31
76424;BME280;65257;52.104;4.268;2023-01-19T01:12:14;100045.72;;;3.71;89.97
76424;BME280;65257;52.104;4.268;2023-01-19T01:14:40;56264.09;;;-142.31;100.00
76424;BME280;65257;52.104;4.268;2023-01-19T01:17:05;56264.09;;;-142.31;100.00
76424;BME280;65257;52.104;4.268;2023-01-19T01:19:38;56264.09;;;-142.31;100.00
76424;BME280;65257;52.104;4.268;2023-01-19T01:22:03;56264.09;;;-142.31;100.00
76424;BME280;65257;52.104;4.268;2023-01-19T01:24:29;56264.09;;;-142.31;100.00
76424;BME280;65257;52.104;4.268;2023-01-19T01:26:55;56264.09;;;-142.31;100.00
76424;BME280;65257;52.104;4.268;2023-01-19T01:29:32;56264.09;;;-142.31;100.00
76424;BME280;65257;52.104;4.268;2023-01-19T01:32:04;56264.09;;;-142.31;100.00
76424;BME280;65257;52.104;4.268;2023-01-19T01:34:29;56264.09;;;-142.31;100.00
76424;BME280;65257;52.104;4.268;2023-01-19T01:36:54;56264.09;;;-142.31;100.00
76424;BME280;65257;52.104;4.268;2023-01-19T01:39:20;56264.09;;;-142.31;100.00
76424;BME280;65257;52.104;4.268;2023-01-19T01:41:46;56264.09;;;-142.31;100.00
76424;BME280;65257;52.104;4.268;2023-01-19T01:44:47;56264.09;;;-142.31;100.00
76424;BME280;65257;52.104;4.268;2023-01-19T01:47:33;56264.09;;;-142.31;100.00
76424;BME280;65257;52.104;4.268;2023-01-19T01:50:22;56264.09;;;-142.31;100.00
76424;BME280;65257;52.104;4.268;2023-01-19T01:52:51;56264.09;;;-142.31;100.00
76424;BME280;65257;52.104;4.268;2023-01-19T01:55:21;56264.09;;;-142.31;100.00
76424;BME280;65257;52.104;4.268;2023-01-19T01:57:52;56264.09;;;-142.31;100.00
76424;BME280;65257;52.104;4.268;2023-01-19T02:00:22;56264.09;;;-142.31;100.00
76424;BME280;65257;52.104;4.268;2023-01-19T02:02:47;56264.09;;;-142.31;100.00
76424;BME280;65257;52.104;4.268;2023-01-19T02:05:21;56264.09;;;-142.31;100.00
76424;BME280;65257;52.104;4.268;2023-01-19T02:11:11;56264.09;;;-142.31;100.00
76424;BME280;65257;52.104;4.268;2023-01-19T02:13:56;56264.09;;;-142.31;100.00
76424;BME280;65257;52.104;4.268;2023-01-19T02:16:21;56264.09;;;-142.31;100.00
76424;BME280;65257;52.104;4.268;2023-01-19T02:18:48;56264.09;;;-142.31;100.00
76424;BME280;65257;52.104;4.268;2023-01-19T02:21:17;56264.09;;;-142.31;100.00
76424;BME280;65257;52.104;4.268;2023-01-19T02:23:55;56264.09;;;-142.31;100.00
76424;BME280;65257;52.104;4.268;2023-01-19T02:26:33;56264.09;;;-142.31;100.00
76424;BME280;65257;52.104;4.268;2023-01-19T02:29:04;56264.09;;;-142.31;100.00
76424;BME280;65257;52.104;4.268;2023-01-19T02:31:31;56264.09;;;-142.31;100.00
76424;BME280;65257;52.104;4.268;2023-01-19T02:34:00;56264.09;;;-142.31;100.00
76424;BME280;65257;52.104;4.268;2023-01-19T02:37:15;56264.09;;;-142.31;100.00
76424;BME280;65257;52.104;4.268;2023-01-19T02:39:18;56264.09;;;-142.31;100.00
76424;BME280;65257;52.104;4.268;2023-01-19T02:41:53;56264.09;;;-142.31;100.00
76424;BME280;65257;52.104;4.268;2023-01-19T02:44:21;56264.09;;;-142.31;100.00
76424;BME280;65257;52.104;4.268;2023-01-19T02:46:48;56264.09;;;-142.31;100.00
76424;BME280;65257;52.104;4.268;2023-01-19T02:49:15;56264.09;;;-142.31;100.00
76424;BME280;65257;52.104;4.268;2023-01-19T02:51:42;56264.09;;;-142.31;100.00
76424;BME280;65257;52.104;4.268;2023-01-19T02:54:40;56264.09;;;-142.31;100.00
76424;BME280;65257;52.104;4.268;2023-01-19T02:57:25;56264.09;;;-142.31;100.00
76424;BME280;65257;52.104;4.268;2023-01-19T03:03:21;56264.09;;;-142.31;100.00
76424;BME280;65257;52.104;4.268;2023-01-19T03:05:53;56264.09;;;-142.31;100.00
76424;BME280;65257;52.104;4.268;2023-01-19T03:08:46;56264.09;;;-142.31;100.00
76424;BME280;65257;52.104;4.268;2023-01-19T03:11:13;56264.09;;;-142.31;100.00
76424;BME280;65257;52.104;4.268;2023-01-19T03:16:16;56264.09;;;-142.31;100.00
76424;BME280;65257;52.104;4.268;2023-01-19T03:18:45;56264.09;;;-142.31;100.00
76424;BME280;65257;52.104;4.268;2023-01-19T03:21:12;56264.09;;;-142.31;100.00
76424;BME280;65257;52.104;4.268;2023-01-19T03:23:41;56264.09;;;-142.31;100.00
76424;BME280;65257;52.104;4.268;2023-01-19T03:26:11;56264.09;;;-142.31;100.00
76424;BME280;65257;52.104;4.268;2023-01-19T03:28:41;56264.09;;;-142.31;100.00
76424;BME280;65257;52.104;4.268;2023-01-19T03:31:22;56264.09;;;-142.31;100.00
76424;BME280;65257;52.104;4.268;2023-01-19T03:33:51;56264.09;;;-142.31;100.00
76424;BME280;65257;52.104;4.268;2023-01-19T03:36:24;56264.09;;;-142.31;100.00
76424;BME280;65257;52.104;4.268;2023-01-19T03:38:52;56264.09;;;-142.31;100.00
76424;BME280;65257;52.104;4.268;2023-01-19T03:41:21;56264.09;;;-142.31;100.00
76424;BME280;65257;52.104;4.268;2023-01-19T03:43:50;56264.09;;;-142.31;100.00
76424;BME280;65257;52.104;4.268;2023-01-19T03:46:18;56264.09;;;-142.31;100.00
76424;BME280;65257;52.104;4.268;2023-01-19T03:48:44;56264.09;;;-142.31;100.00
76424;BME280;65257;52.104;4.268;2023-01-19T03:51:10;56264.09;;;-142.31;100.00
76424;BME280;65257;52.104;4.268;2023-01-19T03:53:37;56264.09;;;-142.31;100.00
76424;BME280;65257;52.104;4.268;2023-01-19T03:56:03;56264.09;;;-142.31;100.00
76424;BME280;65257;52.104;4.268;2023-01-19T03:58:28;56264.09;;;-142.31;100.00
76424;BME280;65257;52.104;4.268;2023-01-19T04:00:54;56264.09;;;-142.31;100.00
76424;BME280;65257;52.104;4.268;2023-01-19T04:03:19;56264.09;;;-142.31;100.00
76424;BME280;65257;52.104;4.268;2023-01-19T04:05:45;56264.09;;;-142.31;100.00
76424;BME280;65257;52.104;4.268;2023-01-19T04:08:10;56264.09;;;-142.31;100.00
76424;BME280;65257;52.104;4.268;2023-01-19T04:10:36;56264.09;;;-142.31;100.00
76424;BME280;65257;52.104;4.268;2023-01-19T04:13:03;56264.09;;;-142.31;100.00
76424;BME280;65257;52.104;4.268;2023-01-19T04:15:29;56264.09;;;-142.31;100.00
76424;BME280;65257;52.104;4.268;2023-01-19T04:17:59;56264.09;;;-142.31;100.00
76424;BME280;65257;52.104;4.268;2023-01-19T04:20:25;56264.09;;;-142.31;100.00
76424;BME280;65257;52.104;4.268;2023-01-19T04:22:52;56264.09;;;-142.31;100.00
76424;BME280;65257;52.104;4.268;2023-01-19T04:25:17;56264.09;;;-142.31;100.00
76424;BME280;65257;52.104;4.268;2023-01-19T04:27:43;56264.09;;;-142.31;100.00
76424;BME280;65257;52.104;4.268;2023-01-19T04:30:08;56264.09;;;-142.31;100.00
76424;BME280;65257;52.104;4.268;2023-01-19T04:32:34;56264.09;;;-142.31;100.00
76424;BME280;65257;52.104;4.268;2023-01-19T04:35:00;56264.09;;;-142.31;100.00
76424;BME280;65257;52.104;4.268;2023-01-19T04:37:26;56264.09;;;-142.31;100.00
76424;BME280;65257;52.104;4.268;2023-01-19T04:39:51;56264.09;;;-142.31;100.00
76424;BME280;65257;52.104;4.268;2023-01-19T04:42:17;56264.09;;;-142.31;100.00
76424;BME280;65257;52.104;4.268;2023-01-19T04:44:42;56264.09;;;-142.31;100.00
76424;BME280;65257;52.104;4.268;2023-01-19T04:47:08;56264.09;;;-142.31;100.00
76424;BME280;65257;52.104;4.268;2023-01-19T04:49:33;56264.09;;;-142.31;100.00
76424;BME280;65257;52.104;4.268;2023-01-19T04:52:02;56264.09;;;-142.31;100.00
76424;BME280;65257;52.104;4.268;2023-01-19T04:54:28;56264.09;;;-142.31;100.00
76424;BME280;65257;52.104;4.268;2023-01-19T04:56:54;56264.09;;;-142.31;100.00
76424;BME280;65257;52.104;4.268;2023-01-19T04:59:19;56264.09;;;-142.31;100.00
76424;BME280;65257;52.104;4.268;2023-01-19T05:01:45;56264.09;;;-142.31;100.00
76424;BME280;65257;52.104;4.268;2023-01-19T05:04:10;56264.09;;;-142.31;100.00
76424;BME280;65257;52.104;4.268;2023-01-19T05:06:36;56264.09;;;-142.31;100.00
76424;BME280;65257;52.104;4.268;2023-01-19T05:09:01;56264.09;;;-142.31;100.00
76424;BME280;65257;52.104;4.268;2023-01-19T05:11:27;56264.09;;;-142.31;100.00
76424;BME280;65257;52.104;4.268;2023-01-19T05:13:52;56264.09;;;-142.31;100.00
76424;BME280;65257;52.104;4.268;2023-01-19T05:16:17;56264.09;;;-142.31;100.00
76424;BME280;65257;52.104;4.268;2023-01-19T05:18:43;56264.09;;;-142.31;100.00
76424;BME280;65257;52.104;4.268;2023-01-19T05:21:08;56264.09;;;-142.31;100.00
76424;BME280;65257;52.104;4.268;2023-01-19T05:23:33;56264.09;;;-142.31;100.00
76424;BME280;65257;52.104;4.268;2023-01-19T05:26:00;56264.09;;;-142.31;100.00
76424;BME280;65257;52.104;4.268;2023-01-19T05:28:31;56264.09;;;-142.31;100.00
76424;BME280;65257;52.104;4.268;2023-01-19T05:30:56;56264.09;;;-142.31;100.00
76424;BME280;65257;52.104;4.268;2023-01-19T05:33:22;56264.09;;;-142.31;100.00
76424;BME280;65257;52.104;4.268;2023-01-19T05:35:52;56264.09;;;-142.31;100.00
76424;BME280;65257;52.104;4.268;2023-01-19T05:38:18;56264.09;;;-142.31;100.00
76424;BME280;65257;52.104;4.268;2023-01-19T05:40:44;56264.09;;;-142.31;100.00
76424;BME280;65257;52.104;4.268;2023-01-19T05:43:09;56264.09;;;-142.31;100.00
76424;BME280;65257;52.104;4.268;2023-01-19T05:45:35;56264.09;;;-142.31;100.00
76424;BME280;65257;52.104;4.268;2023-01-19T05:48:03;56264.09;;;-142.31;100.00
76424;BME280;65257;52.104;4.268;2023-01-19T05:50:29;56264.09;;;-142.31;100.00
76424;BME280;65257;52.104;4.268;2023-01-19T05:52:54;56264.09;;;-142.31;100.00
76424;BME280;65257;52.104;4.268;2023-01-19T05:55:20;56264.09;;;-142.31;100.00
76424;BME280;65257;52.104;4.268;2023-01-19T05:57:45;56264.09;;;-142.31;100.00
76424;BME280;65257;52.104;4.268;2023-01-19T06:00:11;56264.09;;;-142.31;100.00
76424;BME280;65257;52.104;4.268;2023-01-19T06:02:37;56264.09;;;-142.31;100.00
76424;BME280;65257;52.104;4.268;2023-01-19T06:05:02;56264.09;;;-142.31;100.00
76424;BME280;65257;52.104;4.268;2023-01-19T06:07:28;56264.09;;;-142.31;100.00
76424;BME280;65257;52.104;4.268;2023-01-19T06:09:54;56264.09;;;-142.31;100.00
76424;BME280;65257;52.104;4.268;2023-01-19T06:12:19;56264.09;;;-142.31;100.00
76424;BME280;65257;52.104;4.268;2023-01-19T06:14:44;56264.09;;;-142.31;100.00
76424;BME280;65257;52.104;4.268;2023-01-19T06:17:10;56264.09;;;-142.31;100.00
76424;BME280;65257;52.104;4.268;2023-01-19T06:19:35;56264.09;;;-142.31;100.00
76424;BME280;65257;52.104;4.268;2023-01-19T06:22:00;56264.09;;;-142.31;100.00
76424;BME280;65257;52.104;4.268;2023-01-19T06:24:27;56264.09;;;-142.31;100.00
76424;BME280;65257;52.104;4.268;2023-01-19T06:26:52;56264.09;;;-142.31;100.00
76424;BME280;65257;52.104;4.268;2023-01-19T06:29:17;56264.09;;;-142.31;100.00
76424;BME280;65257;52.104;4.268;2023-01-19T06:31:43;56264.09;;;-142.31;100.00
76424;BME280;65257;52.104;4.268;2023-01-19T06:34:09;56264.09;;;-142.31;100.00
76424;BME280;65257;52.104;4.268;2023-01-19T06:36:35;56264.09;;;-142.31;100.00
76424;BME280;65257;52.104;4.268;2023-01-19T06:39:00;56264.09;;;-142.31;100.00
76424;BME280;65257;52.104;4.268;2023-01-19T06:41:31;56264.09;;;-142.31;100.00
76424;BME280;65257;52.104;4.268;2023-01-19T06:43:57;56264.09;;;-142.31;100.00
76424;BME280;65257;52.104;4.268;2023-01-19T06:46:22;56264.09;;;-142.31;100.00
76424;BME280;65257;52.104;4.268;2023-01-19T06:48:47;56264.09;;;-142.31;100.00
76424;BME280;65257;52.104;4.268;2023-01-19T06:51:13;56264.09;;;-142.31;100.00
76424;BME280;65257;52.104;4.268;2023-01-19T06:53:38;56264.09;;;-142.31;100.00
76424;BME280;65257;52.104;4.268;2023-01-19T06:56:04;56264.09;;;-142.31;100.00
76424;BME280;65257;52.104;4.268;2023-01-19T06:58:30;56264.09;;;-142.31;100.00
76424;BME280;65257;52.104;4.268;2023-01-19T07:01:00;56264.09;;;-142.31;100.00
76424;BME280;65257;52.104;4.268;2023-01-19T07:03:26;56264.09;;;-142.31;100.00
76424;BME280;65257;52.104;4.268;2023-01-19T07:05:52;56264.09;;;-142.31;100.00
76424;BME280;65257;52.104;4.268;2023-01-19T07:08:17;56264.09;;;-142.31;100.00
76424;BME280;65257;52.104;4.268;2023-01-19T07:10:43;56264.09;;;-142.31;100.00
76424;BME280;65257;52.104;4.268;2023-01-19T07:13:08;56264.09;;;-142.31;100.00
76424;BME280;65257;52.104;4.268;2023-01-19T07:15:34;56264.09;;;-142.31;100.00
76424;BME280;65257;52.104;4.268;2023-01-19T07:17:59;56264.09;;;-142.31;100.00
76424;BME280;65257;52.104;4.268;2023-01-19T07:20:29;56264.09;;;-142.31;100.00
76424;BME280;65257;52.104;4.268;2023-01-19T07:22:55;56264.09;;;-142.31;100.00
76424;BME280;65257;52.104;4.268;2023-01-19T07:25:21;56264.09;;;-142.31;100.00
76424;BME280;65257;52.104;4.268;2023-01-19T07:27:47;56264.09;;;-142.31;100.00
76424;BME280;65257;52.104;4.268;2023-01-19T07:30:12;56264.09;;;-142.31;100.00
76424;BME280;65257;52.104;4.268;2023-01-19T07:32:40;56264.09;;;-142.31;100.00
76424;BME280;65257;52.104;4.268;2023-01-19T07:35:07;56264.09;;;-142.31;100.00
76424;BME280;65257;52.104;4.268;2023-01-19T07:37:33;56264.09;;;-142.31;100.00
76424;BME280;65257;52.104;4.268;2023-01-19T07:39:58;56264.09;;;-142.31;100.00
76424;BME280;65257;52.104;4.268;2023-01-19T07:42:24;56264.09;;;-142.31;100.00
76424;BME280;65257;52.104;4.268;2023-01-19T07:44:49;56264.09;;;-142.31;100.00
76424;BME280;65257;52.104;4.268;2023-01-19T07:47:15;56264.09;;;-142.31;100.00
76424;BME280;65257;52.104;4.268;2023-01-19T07:49:40;56264.09;;;-142.31;100.00
76424;BME280;65257;52.104;4.268;2023-01-19T07:52:05;56264.09;;;-142.31;100.00
76424;BME280;65257;52.104;4.268;2023-01-19T07:54:31;56264.09;;;-142.31;100.00
76424;BME280;65257;52.104;4.268;2023-01-19T07:56:56;56264.09;;;-142.31;100.00
76424;BME280;65257;52.104;4.268;2023-01-19T07:59:22;56264.09;;;-142.31;100.00
76424;BME280;65257;52.104;4.268;2023-01-19T08:01:47;56264.09;;;-142.31;100.00
76424;BME280;65257;52.104;4.268;2023-01-19T08:04:13;56264.09;;;-142.31;100.00
76424;BME280;65257;52.104;4.268;2023-01-19T08:06:38;56264.09;;;-142.31;100.00
76424;BME280;65257;52.104;4.268;2023-01-19T08:09:05;56264.09;;;-142.31;100.00
76424;BME280;65257;52.104;4.268;2023-01-19T08:11:31;56264.09;;;-142.31;100.00
76424;BME280;65257;52.104;4.268;2023-01-19T08:13:57;56264.09;;;-142.31;100.00
76424;BME280;65257;52.104;4.268;2023-01-19T08:16:23;56264.09;;;-142.31;100.00
76424;BME280;65257;52.104;4.268;2023-01-19T08:18:48;56264.09;;;-142.31;100.00
76424;BME280;65257;52.104;4.268;2023-01-19T08:21:14;56264.09;;;-142.31;100.00
76424;BME280;65257;52.104;4.268;2023-01-19T08:23:39;56264.09;;;-142.31;100.00
76424;BME280;65257;52.104;4.268;2023-01-19T08:26:25;56264.09;;;-142.31;100.00
76424;BME280;65257;52.104;4.268;2023-01-19T08:28:55;56264.09;;;-142.31;100.00
76424;BME280;65257;52.104;4.268;2023-01-19T08:31:22;56264.09;;;-142.31;100.00
76424;BME280;65257;52.104;4.268;2023-01-19T08:33:48;56264.09;;;-142.31;100.00
76424;BME280;65257;52.104;4.268;2023-01-19T08:36:13;56264.09;;;-142.31;100.00
76424;BME280;65257;52.104;4.268;2023-01-19T08:38:39;56264.09;;;-142.31;100.00
76424;BME280;65257;52.104;4.268;2023-01-19T08:41:08;56264.09;;;-142.31;100.00
76424;BME280;65257;52.104;4.268;2023-01-19T08:43:33;56264.09;;;-142.31;100.00
76424;BME280;65257;52.104;4.268;2023-01-19T08:45:58;56264.09;;;-142.31;100.00
76424;BME280;65257;52.104;4.268;2023-01-19T08:48:24;56264.09;;;-142.31;100.00
76424;BME280;65257;52.104;4.268;2023-01-19T08:50:50;56264.09;;;-142.31;100.00
76424;BME280;65257;52.104;4.268;2023-01-19T08:53:16;56264.09;;;-142.31;100.00
76424;BME280;65257;52.104;4.268;2023-01-19T08:55:43;56264.09;;;-142.31;100.00
76424;BME280;65257;52.104;4.268;2023-01-19T08:58:08;56264.09;;;-142.31;100.00
76424;BME280;65257;52.104;4.268;2023-01-19T09:00:36;56264.09;;;-142.31;100.00
76424;BME280;65257;52.104;4.268;2023-01-19T09:03:05;56264.09;;;-142.31;100.00
76424;BME280;65257;52.104;4.268;2023-01-19T09:05:33;56264.09;;;-142.31;100.00
76424;BME280;65257;52.104;4.268;2023-01-19T09:08:05;56264.09;;;-142.31;100.00
76424;BME280;65257;52.104;4.268;2023-01-19T09:10:32;56264.09;;;-142.31;100.00
76424;BME280;65257;52.104;4.268;2023-01-19T09:13:07;56264.09;;;-142.31;100.00
76424;BME280;65257;52.104;4.268;2023-01-19T09:15:35;56264.09;;;-142.31;100.00
76424;BME280;65257;52.104;4.268;2023-01-19T09:18:05;56264.09;;;-142.31;100.00
76424;BME280;65257;52.104;4.268;2023-01-19T09:20:31;56264.09;;;-142.31;100.00
76424;BME280;65257;52.104;4.268;2023-01-19T09:22:59;56264.09;;;-142.31;100.00
76424;BME280;65257;52.104;4.268;2023-01-19T09:25:25;56264.09;;;-142.31;100.00
76424;BME280;65257;52.104;4.268;2023-01-19T09:27:50;56264.09;;;-142.31;100.00
76424;BME280;65257;52.104;4.268;2023-01-19T09:30:16;56264.09;;;-142.31;100.00
76424;BME280;65257;52.104;4.268;2023-01-19T09:32:43;56264.09;;;-142.31;100.00
76424;BME280;65257;52.104;4.268;2023-01-19T09:35:09;56264.09;;;-142.31;100.00
76424;BME280;65257;52.104;4.268;2023-01-19T09:37:35;56264.09;;;-142.31;100.00
76424;BME280;65257;52.104;4.268;2023-01-19T09:40:00;56264.09;;;-142.31;100.00
76424;BME280;65257;52.104;4.268;2023-01-19T09:42:26;56264.09;;;-142.31;100.00
76424;BME280;65257;52.104;4.268;2023-01-19T09:44:55;56264.09;;;-142.31;100.00
76424;BME280;65257;52.104;4.268;2023-01-19T09:47:24;56264.09;;;-142.31;100.00
76424;BME280;65257;52.104;4.268;2023-01-19T09:49:56;56264.09;;;-142.31;100.00
76424;BME280;65257;52.104;4.268;2023-01-19T09:52:25;56264.09;;;-142.31;100.00
76424;BME280;65257;52.104;4.268;2023-01-19T09:54:54;56264.09;;;-142.31;100.00
76424;BME280;65257;52.104;4.268;2023-01-19T09:57:21;56264.09;;;-142.31;100.00
76424;BME280;65257;52.104;4.268;2023-01-19T09:59:47;56264.09;;;-142.31;100.00
76424;BME280;65257;52.104;4.268;2023-01-19T10:05:01;56264.09;;;-142.31;100.00
76424;BME280;65257;52.104;4.268;2023-01-19T10:08:16;56264.09;;;-142.31;100.00
76424;BME280;65257;52.104;4.268;2023-01-19T10:10:51;56264.09;;;-142.31;100.00
76424;BME280;65257;52.104;4.268;2023-01-19T10:13:38;56264.09;;;-142.31;100.00
76424;BME280;65257;52.104;4.268;2023-01-19T10:19:01;56264.09;;;-142.31;100.00
76424;BME280;65257;52.104;4.268;2023-01-19T10:21:41;56264.09;;;-142.31;100.00
76424;BME280;65257;52.104;4.268;2023-01-19T10:24:29;56264.09;;;-142.31;100.00
76424;BME280;65257;52.104;4.268;2023-01-19T10:26:57;56264.09;;;-142.31;100.00
76424;BME280;65257;52.104;4.268;2023-01-19T10:29:30;56264.09;;;-142.31;100.00
76424;BME280;65257;52.104;4.268;2023-01-19T10:34:47;56264.09;;;-142.31;100.00
76424;BME280;65257;52.104;4.268;2023-01-19T10:39:44;56264.09;;;-142.31;100.00
76424;BME280;65257;52.104;4.268;2023-01-19T10:42:12;56264.09;;;-142.31;100.00
76424;BME280;65257;52.104;4.268;2023-01-19T10:44:40;56264.09;;;-142.31;100.00
76424;BME280;65257;52.104;4.268;2023-01-19T10:47:12;56264.09;;;-142.31;100.00
76424;BME280;65257;52.104;4.268;2023-01-19T10:49:40;56264.09;;;-142.31;100.00
76424;BME280;65257;52.104;4.268;2023-01-19T10:52:28;56264.09;;;-142.31;100.00
76424;BME280;65257;52.104;4.268;2023-01-19T10:54:55;56264.09;;;-142.31;100.00
76424;BME280;65257;52.104;4.268;2023-01-19T10:57:27;56264.09;;;-142.31;100.00
76424;BME280;65257;52.104;4.268;2023-01-19T10:59:53;56264.09;;;-142.31;100.00
76424;BME280;65257;52.104;4.268;2023-01-19T11:02:26;56264.09;;;-142.31;100.00
76424;BME280;65257;52.104;4.268;2023-01-19T11:04:55;56264.09;;;-142.31;100.00
76424;BME280;65257;52.104;4.268;2023-01-19T11:12:40;56264.09;;;-142.31;100.00
76424;BME280;65257;52.104;4.268;2023-01-19T11:15:21;56264.09;;;-142.31;100.00
76424;BME280;65257;52.104;4.268;2023-01-19T11:17:48;56264.09;;;-142.31;100.00
76424;BME280;65257;52.104;4.268;2023-01-19T11:20:21;56264.09;;;-142.31;100.00
76424;BME280;65257;52.104;4.268;2023-01-19T11:22:47;56264.09;;;-142.31;100.00
76424;BME280;65257;52.104;4.268;2023-01-19T11:25:24;56264.09;;;-142.31;100.00
76424;BME280;65257;52.104;4.268;2023-01-19T11:27:52;56264.09;;;-142.31;100.00
76424;BME280;65257;52.104;4.268;2023-01-19T11:30:23;56264.09;;;-142.31;100.00
76424;BME280;65257;52.104;4.268;2023-01-19T11:32:50;56264.09;;;-142.31;100.00
76424;BME280;65257;52.104;4.268;2023-01-19T11:35:35;56264.09;;;-142.31;100.00
76424;BME280;65257;52.104;4.268;2023-01-19T11:40:50;56264.09;;;-142.31;100.00
76424;BME280;65257;52.104;4.268;2023-01-19T11:43:17;56264.09;;;-142.31;100.00
76424;BME280;65257;52.104;4.268;2023-01-19T11:45:44;56264.09;;;-142.31;100.00
76424;BME280;65257;52.104;4.268;2023-01-19T11:48:20;56264.09;;;-142.31;100.00
76424;BME280;65257;52.104;4.268;2023-01-19T11:50:47;56264.09;;;-142.31;100.00
76424;BME280;65257;52.104;4.268;2023-01-19T11:58:17;56264.09;;;-142.31;100.00
76424;BME280;65257;52.104;4.268;2023-01-19T12:00:48;56264.09;;;-142.31;100.00
76424;BME280;65257;52.104;4.268;2023-01-19T12:03:24;56264.09;;;-142.31;100.00
76424;BME280;65257;52.104;4.268;2023-01-19T12:05:54;56264.09;;;-142.31;100.00
76424;BME280;65257;52.104;4.268;2023-01-19T12:08:26;56264.09;;;-142.31;100.00
76424;BME280;65257;52.104;4.268;2023-01-19T12:10:56;56264.09;;;-142.31;100.00
76424;BME280;65257;52.104;4.268;2023-01-19T12:13:25;56264.09;;;-142.31;100.00
76424;BME280;65257;52.104;4.268;2023-01-19T12:15:54;56264.09;;;-142.31;100.00
76424;BME280;65257;52.104;4.268;2023-01-19T12:18:24;56264.09;;;-142.31;100.00
76424;BME280;65257;52.104;4.268;2023-01-19T12:20:52;56264.09;;;-142.31;100.00
76424;BME280;65257;52.104;4.268;2023-01-19T12:23:27;56264.09;;;-142.31;100.00
76424;BME280;65257;52.104;4.268;2023-01-19T12:28:46;56264.09;;;-142.31;100.00
76424;BME280;65257;52.104;4.268;2023-01-19T12:31:18;56264.09;;;-142.31;100.00
76424;BME280;65257;52.104;4.268;2023-01-19T12:33:45;56264.09;;;-142.31;100.00
76424;BME280;65257;52.104;4.268;2023-01-19T12:38:56;56264.09;;;-142.31;100.00
76424;BME280;65257;52.104;4.268;2023-01-19T12:41:26;56264.09;;;-142.31;100.00
76424;BME280;65257;52.104;4.268;2023-01-19T12:46:40;56264.09;;;-142.31;100.00
76424;BME280;65257;52.104;4.268;2023-01-19T12:51:53;56264.09;;;-142.31;100.00
76424;BME280;65257;52.104;4.268;2023-01-19T12:54:28;56264.09;;;-142.31;100.00
76424;BME280;65257;52.104;4.268;2023-01-19T12:57:01;56264.09;;;-142.31;100.00
76424;BME280;65257;52.104;4.268;2023-01-19T12:59:30;56264.09;;;-142.31;100.00
76424;BME280;65257;52.104;4.268;2023-01-19T13:13:41;56264.09;;;-142.31;100.00
76424;BME280;65257;52.104;4.268;2023-01-19T13:18:43;56264.09;;;-142.31;100.00
76424;BME280;65257;52.104;4.268;2023-01-19T13:21:13;56264.09;;;-142.31;100.00
76424;BME280;65257;52.104;4.268;2023-01-19T13:23:53;56264.09;;;-142.31;100.00
76424;BME280;65257;52.104;4.268;2023-01-19T13:26:20;56264.09;;;-142.31;100.00
76424;BME280;65257;52.104;4.268;2023-01-19T13:28:49;56264.09;;;-142.31;100.00
76424;BME280;65257;52.104;4.268;2023-01-19T13:31:16;56264.09;;;-142.31;100.00
76424;BME280;65257;52.104;4.268;2023-01-19T13:33:51;56264.09;;;-142.31;100.00
76424;BME280;65257;52.104;4.268;2023-01-19T13:36:37;56264.09;;;-142.31;100.00
76424;BME280;65257;52.104;4.268;2023-01-19T13:39:11;56264.09;;;-142.31;100.00